THA1123 VVTS-VTCT
Flight info
| Callsign | THA1123 |
|---|---|
| Flight time | N/A |
| Altitude | 38000 |
| Route | SAPEN5A SAPEN R468 ELMOP P629 TIA W1 REP R345 ROT R470 VTN R207 NAN R215 DUBEN |
| Aircraft | B77W/H-SDE1E2E3FGHIJ2J3J4J5M1RWXY/LB1D1 |
Departure
| Time | 2026-05-06 13:20 |
|---|---|
| Airport | Tan Son Nhat International Airport (VVTS) |
Arrival
| Time | N/A |
|---|---|
| Airport | Mae Fah Luang - Chiang Rai International Airport (VTCT) |
| Time | Latitude | Longitude | Altitude | Speed | Heading |
|---|---|---|---|---|---|
| 2026-05-06 12:58 | 10.81815 | 106.66497 | 46 ft | 0 kts | 161° |
| 2026-05-06 13:13 | 10.81828 | 106.66492 | 47 ft | 2 kts | 161° |
| 2026-05-06 13:13 | 10.81844 | 106.66487 | 44 ft | 2 kts | 160° |
| 2026-05-06 13:13 | 10.81859 | 106.66481 | 43 ft | 2 kts | 152° |
| 2026-05-06 13:13 | 10.81873 | 106.66472 | 42 ft | 2 kts | 136° |
| 2026-05-06 13:14 | 10.81884 | 106.66459 | 44 ft | 2 kts | 119° |
| 2026-05-06 13:14 | 10.81889 | 106.66443 | 43 ft | 2 kts | 71° |
| 2026-05-06 13:14 | 10.81883 | 106.66428 | 43 ft | 2 kts | 69° |
| 2026-05-06 13:14 | 10.81877 | 106.66412 | 41 ft | 2 kts | 69° |
| 2026-05-06 13:15 | 10.81871 | 106.66397 | 43 ft | 2 kts | 69° |
| 2026-05-06 13:15 | 10.81869 | 106.66390 | 43 ft | 0 kts | 68° |
| 2026-05-06 13:16 | 10.81884 | 106.66430 | 44 ft | 13 kts | 69° |
| 2026-05-06 13:16 | 10.81916 | 106.66515 | 47 ft | 13 kts | 69° |
| 2026-05-06 13:16 | 10.81948 | 106.66601 | 47 ft | 13 kts | 69° |
| 2026-05-06 13:17 | 10.81980 | 106.66687 | 47 ft | 13 kts | 69° |
| 2026-05-06 13:17 | 10.82012 | 106.66773 | 48 ft | 13 kts | 69° |
| 2026-05-06 13:17 | 10.82052 | 106.66866 | 48 ft | 16 kts | 58° |
| 2026-05-06 13:17 | 10.82126 | 106.66942 | 49 ft | 9 kts | 39° |
| 2026-05-06 13:18 | 10.82177 | 106.66983 | 49 ft | 9 kts | 38° |
| 2026-05-06 13:18 | 10.82187 | 106.66991 | 50 ft | 1 kts | 38° |
| 2026-05-06 13:18 | 10.82244 | 106.67006 | 50 ft | 11 kts | 353° |
| 2026-05-06 13:18 | 10.82316 | 106.66974 | 49 ft | 11 kts | 320° |
| 2026-05-06 13:19 | 10.82343 | 106.66901 | 49 ft | 12 kts | 268° |
| 2026-05-06 13:19 | 10.82329 | 106.66846 | 49 ft | 7 kts | 250° |
| 2026-05-06 13:19 | 10.82248 | 106.66630 | 47 ft | 70 kts | 249° |
| 2026-05-06 13:19 | 10.81971 | 106.65894 | 49 ft | 151 kts | 249° |
| 2026-05-06 13:20 | 10.81521 | 106.64696 | 236 ft | 198 kts | 250° |
| 2026-05-06 13:20 | 10.81052 | 106.63411 | 1171 ft | 194 kts | 249° |
| 2026-05-06 13:20 | 10.80579 | 106.62080 | 1881 ft | 205 kts | 247° |
| 2026-05-06 13:20 | 10.80039 | 106.60638 | 2228 ft | 234 kts | 247° |
| 2026-05-06 13:21 | 10.79420 | 106.58992 | 2554 ft | 261 kts | 248° |
| 2026-05-06 13:21 | 10.78770 | 106.57230 | 3291 ft | 269 kts | 252° |
| 2026-05-06 13:21 | 10.78651 | 106.55315 | 3943 ft | 279 kts | 286° |
| 2026-05-06 13:21 | 10.79549 | 106.53589 | 4792 ft | 278 kts | 307° |
| 2026-05-06 13:22 | 10.80641 | 106.51964 | 5596 ft | 285 kts | 306° |
| 2026-05-06 13:22 | 10.81747 | 106.50281 | 6511 ft | 287 kts | 305° |
| 2026-05-06 13:22 | 10.82854 | 106.48578 | 7388 ft | 290 kts | 305° |
| 2026-05-06 13:22 | 10.83970 | 106.46848 | 8213 ft | 295 kts | 304° |
| 2026-05-06 13:23 | 10.85095 | 106.45090 | 9049 ft | 299 kts | 304° |
| 2026-05-06 13:23 | 10.86235 | 106.43301 | 9861 ft | 303 kts | 304° |
| 2026-05-06 13:23 | 10.87390 | 106.41481 | 10532 ft | 313 kts | 304° |
| 2026-05-06 13:23 | 10.88620 | 106.39540 | 10783 ft | 341 kts | 304° |
| 2026-05-06 13:24 | 10.89955 | 106.37430 | 10987 ft | 368 kts | 303° |
| 2026-05-06 13:24 | 10.91381 | 106.35170 | 11381 ft | 387 kts | 303° |
| 2026-05-06 13:24 | 10.92855 | 106.32830 | 12069 ft | 398 kts | 303° |
| 2026-05-06 13:24 | 10.94360 | 106.30439 | 12949 ft | 404 kts | 303° |
| 2026-05-06 13:25 | 10.95366 | 106.28841 | 13518 ft | 407 kts | 303° |
| 2026-05-06 13:25 | 10.97423 | 106.25573 | 13863 ft | 412 kts | 303° |
| 2026-05-06 13:25 | 10.98453 | 106.23937 | 14088 ft | 415 kts | 303° |
| 2026-05-06 13:25 | 11.00536 | 106.20630 | 15253 ft | 417 kts | 303° |
| 2026-05-06 13:26 | 11.01574 | 106.18980 | 15797 ft | 419 kts | 303° |
| 2026-05-06 13:26 | 11.02986 | 106.16374 | 16513 ft | 424 kts | 295° |
| 2026-05-06 13:26 | 11.04103 | 106.13575 | 17274 ft | 429 kts | 290° |
| 2026-05-06 13:26 | 11.05124 | 106.10712 | 18033 ft | 433 kts | 290° |
| 2026-05-06 13:27 | 11.06164 | 106.07817 | 18665 ft | 438 kts | 290° |
| 2026-05-06 13:27 | 11.07260 | 106.04910 | 19320 ft | 442 kts | 291° |
| 2026-05-06 13:27 | 11.08400 | 106.01991 | 19938 ft | 446 kts | 292° |
| 2026-05-06 13:27 | 11.09506 | 105.99139 | 20535 ft | 448 kts | 289° |
| 2026-05-06 13:28 | 11.10283 | 105.96060 | 21143 ft | 452 kts | 279° |
| 2026-05-06 13:28 | 11.10549 | 105.92866 | 21788 ft | 455 kts | 270° |
| 2026-05-06 13:28 | 11.10335 | 105.89647 | 22399 ft | 458 kts | 262° |
| 2026-05-06 13:28 | 11.09844 | 105.86429 | 22956 ft | 463 kts | 261° |
| 2026-05-06 13:29 | 11.09320 | 105.83178 | 23485 ft | 467 kts | 261° |
| 2026-05-06 13:29 | 11.08814 | 105.79898 | 23965 ft | 471 kts | 261° |
| 2026-05-06 13:29 | 11.08335 | 105.76588 | 24437 ft | 474 kts | 261° |
| 2026-05-06 13:29 | 11.07879 | 105.73252 | 24871 ft | 478 kts | 263° |
| 2026-05-06 13:30 | 11.07764 | 105.69861 | 25276 ft | 482 kts | 272° |
| 2026-05-06 13:30 | 11.08131 | 105.66459 | 25737 ft | 485 kts | 279° |
| 2026-05-06 13:30 | 11.08927 | 105.63106 | 26150 ft | 489 kts | 288° |
| 2026-05-06 13:30 | 11.10056 | 105.59832 | 26594 ft | 492 kts | 290° |
| 2026-05-06 13:31 | 11.11242 | 105.56555 | 27011 ft | 495 kts | 290° |
| 2026-05-06 13:31 | 11.12443 | 105.53257 | 27465 ft | 498 kts | 290° |
| 2026-05-06 13:31 | 11.13621 | 105.49988 | 27887 ft | 500 kts | 290° |
| 2026-05-06 13:31 | 11.14821 | 105.46608 | 28284 ft | 503 kts | 290° |
| 2026-05-06 13:32 | 11.15987 | 105.43285 | 28618 ft | 507 kts | 289° |
| 2026-05-06 13:32 | 11.17168 | 105.39890 | 28926 ft | 510 kts | 289° |
| 2026-05-06 13:32 | 11.18352 | 105.36474 | 29276 ft | 513 kts | 289° |
| 2026-05-06 13:32 | 11.19539 | 105.33047 | 29623 ft | 515 kts | 289° |
| 2026-05-06 13:33 | 11.20730 | 105.29606 | 30011 ft | 515 kts | 289° |
| 2026-05-06 13:33 | 11.21920 | 105.26174 | 30441 ft | 513 kts | 289° |
| 2026-05-06 13:33 | 11.23102 | 105.22762 | 30931 ft | 510 kts | 289° |
| 2026-05-06 13:33 | 11.24282 | 105.19360 | 31347 ft | 509 kts | 289° |
| 2026-05-06 13:34 | 11.25457 | 105.15969 | 31798 ft | 507 kts | 289° |
| 2026-05-06 13:34 | 11.26629 | 105.12585 | 32256 ft | 506 kts | 289° |
| 2026-05-06 13:34 | 11.27797 | 105.09212 | 32704 ft | 504 kts | 289° |
| 2026-05-06 13:34 | 11.28962 | 105.05847 | 33139 ft | 503 kts | 289° |
| 2026-05-06 13:35 | 11.30121 | 105.02495 | 33594 ft | 501 kts | 289° |
| 2026-05-06 13:35 | 11.31236 | 104.99271 | 34003 ft | 500 kts | 289° |
| 2026-05-06 13:35 | 11.32394 | 104.95946 | 34397 ft | 495 kts | 291° |
| 2026-05-06 13:35 | 11.34019 | 104.92842 | 34629 ft | 499 kts | 307° |
| 2026-05-06 13:36 | 11.36451 | 104.90339 | 34985 ft | 497 kts | 322° |
| 2026-05-06 13:36 | 11.39389 | 104.88522 | 35435 ft | 494 kts | 336° |
| 2026-05-06 13:36 | 11.42627 | 104.87382 | 35701 ft | 493 kts | 342° |
| 2026-05-06 13:36 | 11.45914 | 104.86341 | 35884 ft | 496 kts | 342° |
| 2026-05-06 13:37 | 11.49216 | 104.85302 | 36194 ft | 496 kts | 342° |
| 2026-05-06 13:37 | 11.52504 | 104.84254 | 36584 ft | 494 kts | 342° |
| 2026-05-06 13:37 | 11.55778 | 104.83191 | 36952 ft | 493 kts | 341° |
| 2026-05-06 13:37 | 11.59036 | 104.82115 | 37283 ft | 492 kts | 341° |
| 2026-05-06 13:38 | 11.62292 | 104.81028 | 37588 ft | 492 kts | 341° |
| 2026-05-06 13:38 | 11.65549 | 104.79934 | 37794 ft | 495 kts | 341° |
| 2026-05-06 13:38 | 11.68782 | 104.78846 | 37836 ft | 496 kts | 341° |
| 2026-05-06 13:39 | 11.75295 | 104.76654 | 37843 ft | 489 kts | 341° |
| 2026-05-06 13:39 | 11.81730 | 104.74490 | 37847 ft | 486 kts | 341° |
| 2026-05-06 13:40 | 11.88149 | 104.72332 | 37855 ft | 485 kts | 341° |
| 2026-05-06 13:40 | 11.94566 | 104.70173 | 37855 ft | 486 kts | 341° |
| 2026-05-06 13:41 | 12.00979 | 104.68015 | 37855 ft | 487 kts | 341° |
| 2026-05-06 13:41 | 12.07426 | 104.65845 | 37856 ft | 489 kts | 341° |
| 2026-05-06 13:42 | 12.13897 | 104.63665 | 37865 ft | 491 kts | 341° |
| 2026-05-06 13:42 | 12.20393 | 104.61476 | 37863 ft | 492 kts | 341° |
| 2026-05-06 13:43 | 12.26908 | 104.59279 | 37862 ft | 496 kts | 341° |
| 2026-05-06 13:43 | 12.33511 | 104.57051 | 37872 ft | 504 kts | 341° |
| 2026-05-06 13:44 | 12.40209 | 104.54790 | 37857 ft | 510 kts | 341° |
| 2026-05-06 13:44 | 12.46975 | 104.52505 | 37858 ft | 515 kts | 341° |
| 2026-05-06 13:45 | 12.53791 | 104.50202 | 37857 ft | 517 kts | 341° |
| 2026-05-06 13:45 | 12.64000 | 104.46750 | 37852 ft | 517 kts | 341° |
| 2026-05-06 13:46 | 12.70828 | 104.44439 | 37854 ft | 517 kts | 341° |
| 2026-05-06 13:46 | 12.77645 | 104.42131 | 37858 ft | 515 kts | 340° |
| 2026-05-06 13:47 | 12.84438 | 104.39829 | 37851 ft | 513 kts | 340° |
| 2026-05-06 13:47 | 12.91197 | 104.37520 | 37854 ft | 511 kts | 340° |
| 2026-05-06 13:48 | 12.97937 | 104.35190 | 37850 ft | 510 kts | 340° |
| 2026-05-06 13:48 | 13.04638 | 104.32874 | 37850 ft | 510 kts | 340° |
| 2026-05-06 13:49 | 13.11359 | 104.30553 | 37864 ft | 509 kts | 339° |
| 2026-05-06 13:49 | 13.18064 | 104.28237 | 37859 ft | 508 kts | 339° |
| 2026-05-06 13:50 | 13.24761 | 104.25923 | 37852 ft | 508 kts | 339° |
| 2026-05-06 13:50 | 13.31451 | 104.23609 | 37854 ft | 507 kts | 339° |
| 2026-05-06 13:51 | 13.38105 | 104.21219 | 37827 ft | 506 kts | 336° |
| 2026-05-06 13:51 | 13.44617 | 104.18501 | 37830 ft | 505 kts | 335° |
| 2026-05-06 13:52 | 13.51112 | 104.15724 | 37841 ft | 506 kts | 335° |
| 2026-05-06 13:52 | 13.57625 | 104.12972 | 37843 ft | 506 kts | 336° |
| 2026-05-06 13:53 | 13.64147 | 104.10235 | 37852 ft | 506 kts | 336° |
| 2026-05-06 13:53 | 13.70672 | 104.07496 | 37854 ft | 506 kts | 336° |
| 2026-05-06 13:54 | 13.77191 | 104.04756 | 37861 ft | 506 kts | 336° |
| 2026-05-06 13:54 | 13.83715 | 104.02010 | 37863 ft | 507 kts | 336° |
| 2026-05-06 13:55 | 13.90143 | 103.99302 | 37860 ft | 507 kts | 336° |
| 2026-05-06 13:55 | 13.96671 | 103.96548 | 37863 ft | 507 kts | 336° |
| 2026-05-06 13:56 | 14.03186 | 103.93796 | 37862 ft | 507 kts | 336° |
| 2026-05-06 13:56 | 14.09717 | 103.91037 | 37869 ft | 507 kts | 336° |